Xifengzhen, China
Current Conditions -  °F | °C
As of 12:00 AM on Tuesday 25 Nov 2014 (Local Time) from ZLXY Reporting Station
Haze Haze  
Wind Chill: 45°   Ceiling: 4000
Heat Index: 45°   Visibility: 0.87mi
Dew Point: 43°   Wind: 0mph
Humidity: 93%   Direction: NA
Pressure: 30.21"   Gusts: NA
Location:  35.73°N, 107.63°E
Report Text: ZLXY 241600Z 00000MPS 1400 R23R/P2000 R23L/1800D BRFEW005SCT010 OVC040 07/06 Q1023 NOSIG
Loading
Personal Weather Stations






























Interactive Weather Map New forecast layout! Learn more

10-Day Weather Forecast

Advertisements
Track Severe Weather on mobile